Time;durP1;ratioP1;P1;durP2;ratioP2;P2;SDS_P1;SDS_P2;PMS_P1;PMS_P2;Temp;Humidity;BMP_temperature;BMP_pressure;BME280_temperature;BME280_humidity;BME280_pressure;Samples;Min_cycle;Max_cycle;Signal;HPM_P1;HPM_P2
2021/10/15 00:00:32;;;;;;;3.53;1.70;;;;;;;21.03;47.49;101705.56;4993043;28;20085;-62
2021/10/15 00:03:00;;;;;;;4.13;1.80;;;;;;;21.02;47.34;101706.53;4991750;28;20673;-62
2021/10/15 00:05:29;;;;;;;3.97;1.80;;;;;;;21.00;47.30;101700.50;4992784;28;20291;-62
2021/10/15 00:07:54;;;;;;;3.67;1.67;;;;;;;20.99;47.30;101691.69;4992403;28;20498;-62
2021/10/15 00:10:20;;;;;;;2.60;1.33;;;;;;;20.99;47.35;101701.47;4991781;28;20039;-63
2021/10/15 00:12:45;;;;;;;3.60;1.55;;;;;;;20.96;47.36;101699.88;4992917;28;20436;-63
2021/10/15 00:15:10;;;;;;;3.70;1.80;;;;;;;20.95;47.28;101694.72;4992156;28;20026;-61
2021/10/15 00:17:36;;;;;;;4.03;1.45;;;;;;;20.94;47.39;101685.09;4992358;28;20145;-62
2021/10/15 00:20:02;;;;;;;4.07;1.75;;;;;;;20.93;47.24;101686.88;4992277;28;20480;-63
2021/10/15 00:22:27;;;;;;;3.55;1.73;;;;;;;20.92;47.30;101684.34;4991853;28;20030;-62
2021/10/15 00:24:53;;;;;;;3.43;1.77;;;;;;;20.90;47.38;101671.22;4992589;28;20032;-61
2021/10/15 00:27:18;;;;;;;2.85;1.48;;;;;;;20.89;46.92;101672.22;4992492;28;20798;-63
2021/10/15 00:29:43;;;;;;;4.73;1.60;;;;;;;20.89;47.39;101666.09;4991995;28;20022;-63
2021/10/15 00:32:11;;;;;;;3.15;1.50;;;;;;;20.88;47.27;101667.88;4992547;28;20092;-63
2021/10/15 00:34:39;;;;;;;3.20;1.50;;;;;;;20.88;47.47;101661.75;4992959;28;20026;-64
2021/10/15 00:37:05;;;;;;;3.78;2.00;;;;;;;20.87;47.28;101660.91;4991805;28;20077;-63
2021/10/15 00:39:30;;;;;;;4.15;1.50;;;;;;;20.85;47.24;101654.88;4992133;28;20109;-62
2021/10/15 00:41:55;;;;;;;4.20;1.67;;;;;;;20.84;47.16;101663.81;4992506;28;20062;-63
2021/10/15 00:44:21;;;;;;;4.03;1.40;;;;;;;20.81;47.39;101656.94;4991646;28;20340;-63
2021/10/15 00:46:46;;;;;;;3.45;1.55;;;;;;;20.81;47.09;101650.81;4992697;28;20081;-63
2021/10/15 00:49:13;;;;;;;3.10;1.50;;;;;;;20.79;47.33;101645.63;4995766;28;20094;-63
2021/10/15 00:51:41;;;;;;;4.20;1.80;;;;;;;20.78;47.34;101641.28;4995485;28;20609;-62
2021/10/15 00:54:12;;;;;;;3.45;1.33;;;;;;;20.77;47.40;101634.28;4995506;28;20093;-62
2021/10/15 00:56:37;;;;;;;3.15;1.55;;;;;;;20.77;47.47;101636.09;4996191;28;20057;-63
2021/10/15 00:59:02;;;;;;;3.38;1.48;;;;;;;20.76;47.36;101637.91;4995190;28;20390;-63
2021/10/15 01:01:29;;;;;;;3.60;1.52;;;;;;;20.75;47.30;101622.97;4995883;28;20091;-62
2021/10/15 01:04:00;;;;;;;3.58;1.52;;;;;;;20.73;47.44;101624.91;4995946;28;20026;-62
2021/10/15 01:06:30;;;;;;;3.30;1.50;;;;;;;20.73;47.33;101619.63;4995165;28;20038;-63
2021/10/15 01:08:55;;;;;;;3.85;1.65;;;;;;;20.72;47.40;101619.75;4996000;28;20023;-63
2021/10/15 01:11:21;;;;;;;2.78;1.38;;;;;;;20.71;47.25;101615.41;4995672;28;20493;-62
2021/10/15 01:13:47;;;;;;;4.43;1.50;;;;;;;20.71;47.33;101615.41;4995216;28;20037;-62
2021/10/15 01:16:14;;;;;;;3.38;1.48;;;;;;;20.69;47.28;101612.03;4995208;28;20045;-62
2021/10/15 01:18:40;;;;;;;3.47;1.70;;;;;;;20.68;47.58;101613.84;4995016;28;20439;-63
2021/10/15 01:21:07;;;;;;;2.90;1.52;;;;;;;20.67;47.32;101609.50;4995506;28;20029;-62
2021/10/15 01:23:32;;;;;;;3.22;1.55;;;;;;;20.67;47.49;101606.03;4995529;28;20023;-62
2021/10/15 01:25:57;;;;;;;5.53;1.80;;;;;;;20.66;47.46;101607.81;4994367;28;20026;-63
2021/10/15 01:28:25;;;;;;;3.63;1.50;;;;;;;20.66;47.42;101594.56;4995664;28;20030;-62
2021/10/15 01:30:51;;;;;;;3.70;1.63;;;;;;;20.66;47.09;101594.56;4995440;28;20045;-62
2021/10/15 01:33:17;;;;;;;4.10;1.40;;;;;;;20.64;47.56;101596.50;4994467;28;20026;-63
2021/10/15 01:35:43;;;;;;;3.60;1.60;;;;;;;20.63;47.50;101593.00;4995344;28;20025;-63
2021/10/15 01:38:09;;;;;;;3.47;1.30;;;;;;;20.62;47.35;101583.38;4995348;28;20403;-63
2021/10/15 01:40:34;;;;;;;2.92;1.52;;;;;;;20.62;47.48;101583.38;4994695;28;20026;-63
2021/10/15 01:42:59;;;;;;;3.97;1.70;;;;;;;20.61;47.54;101580.84;4995021;28;20030;-62
2021/10/15 01:45:28;;;;;;;4.10;1.65;;;;;;;20.60;47.44;101587.09;4995290;28;20104;-63
2021/10/15 01:47:54;;;;;;;4.20;1.50;;;;;;;20.59;47.54;101583.63;4994383;28;20042;-63
2021/10/15 01:50:21;;;;;;;3.35;1.63;;;;;;;20.58;47.30;101568.69;4993651;28;20505;-62
2021/10/15 01:52:49;;;;;;;3.17;1.40;;;;;;;20.57;47.66;101577.59;4995066;28;20073;-63
2021/10/15 01:55:20;;;;;;;4.65;1.48;;;;;;;20.57;47.51;101574.97;4993790;28;20042;-63
2021/10/15 01:57:46;;;;;;;3.63;1.50;;;;;;;20.57;47.73;101571.44;4994859;28;20023;-62
2021/10/15 02:00:13;;;;;;;3.92;1.60;;;;;;;20.56;47.38;101562.66;4994089;28;20036;-63
2021/10/15 02:02:39;;;;;;;3.53;1.60;;;;;;;20.56;47.58;101560.03;4994034;28;20034;-61
2021/10/15 02:05:07;;;;;;;3.33;1.60;;;;;;;20.56;47.59;101562.66;4994504;28;20390;-63
2021/10/15 02:07:32;;;;;;;3.60;1.70;;;;;;;20.55;47.21;101558.31;4994488;28;20026;-62
2021/10/15 02:10:00;;;;;;;2.83;1.40;;;;;;;20.55;47.50;101558.31;4993641;28;20029;-61
2021/10/15 02:12:25;;;;;;;3.42;1.33;;;;;;;20.55;47.30;101553.03;4994625;28;20081;-62
2021/10/15 02:14:51;;;;;;;4.30;1.73;;;;;;;20.53;47.56;101552.31;4993932;28;20039;-62
2021/10/15 02:17:19;;;;;;;4.15;1.70;;;;;;;20.53;47.48;101551.50;4994077;28;20279;-62
2021/10/15 02:19:44;;;;;;;3.75;1.60;;;;;;;20.51;47.39;101548.97;4994586;28;20464;-63
2021/10/15 02:22:09;;;;;;;4.03;1.60;;;;;;;20.51;47.50;101548.97;4993652;28;20084;-62
2021/10/15 02:24:36;;;;;;;3.03;1.35;;;;;;;20.50;47.42;101549.91;4994442;28;20692;-63
2021/10/15 02:27:01;;;;;;;3.58;1.55;;;;;;;20.50;47.51;101546.44;4994076;28;20027;-62
2021/10/15 02:29:27;;;;;;;3.50;1.60;;;;;;;20.49;47.45;101540.31;4993659;28;20107;-63
2021/10/15 02:31:52;;;;;;;4.28;1.60;;;;;;;20.50;47.44;101541.97;4994141;28;20045;-62
2021/10/15 02:34:24;;;;;;;3.28;1.48;;;;;;;20.48;47.31;101536.81;4994163;28;20031;-63
2021/10/15 02:36:49;;;;;;;3.25;1.50;;;;;;;20.47;47.27;101527.19;4993543;28;20030;-63
2021/10/15 02:39:15;;;;;;;4.18;1.65;;;;;;;20.47;47.39;101529.84;4993868;28;20023;-62
2021/10/15 02:41:40;;;;;;;3.30;1.60;;;;;;;20.47;47.43;101529.84;4994244;28;20037;-62
2021/10/15 02:44:10;;;;;;;3.88;1.83;;;;;;;20.46;47.44;101528.16;4993035;28;20038;-63
2021/10/15 02:46:37;;;;;;;3.17;1.60;;;;;;;20.47;47.37;101529.84;4994108;28;20405;-62
2021/10/15 02:49:06;;;;;;;2.95;1.50;;;;;;;20.47;47.51;101524.56;4993800;28;20431;-62
2021/10/15 02:51:31;;;;;;;3.50;1.55;;;;;;;20.47;47.46;101528.97;4993015;28;20474;-62
2021/10/15 02:53:57;;;;;;;5.38;1.95;;;;;;;20.46;47.42;101525.50;4993483;28;20057;-63
2021/10/15 02:56:22;;;;;;;5.85;1.80;;;;;;;20.47;47.40;101521.03;4993766;28;20030;-63
2021/10/15 02:58:48;;;;;;;3.45;1.50;;;;;;;20.45;47.53;101510.56;4992644;28;20594;-62
2021/10/15 03:01:14;;;;;;;3.55;1.60;;;;;;;20.46;47.53;101516.72;4993588;28;20367;-63
2021/10/15 03:03:40;;;;;;;3.92;1.58;;;;;;;20.43;47.39;101509.88;4993607;28;20030;-62
2021/10/15 03:06:05;;;;;;;3.72;1.35;;;;;;;20.43;47.48;101504.56;4992908;28;20026;-62
2021/10/15 03:08:30;;;;;;;3.35;1.48;;;;;;;20.43;47.40;101498.44;4993922;28;20054;-63
2021/10/15 03:10:55;;;;;;;4.00;1.65;;;;;;;20.42;47.42;101510.00;4992577;28;20022;-62
2021/10/15 03:13:21;;;;;;;4.18;1.40;;;;;;;20.42;47.40;101504.69;4992642;28;20030;-62
2021/10/15 03:15:46;;;;;;;3.67;1.45;;;;;;;20.41;47.57;101500.34;4993419;28;20510;-63
2021/10/15 03:18:12;;;;;;;2.63;1.23;;;;;;;20.40;47.59;101494.22;4992283;28;20033;-62
2021/10/15 03:20:38;;;;;;;3.40;1.30;;;;;;;20.40;47.57;101494.22;4993341;28;20426;-63
2021/10/15 03:23:04;;;;;;;3.13;1.40;;;;;;;20.39;47.62;101489.88;4993216;28;20038;-63
2021/10/15 03:25:30;;;;;;;3.15;1.50;;;;;;;20.38;47.62;101493.53;4992624;28;20034;-62
2021/10/15 03:27:55;;;;;;;3.35;1.50;;;;;;;20.38;47.52;101490.03;4993229;28;20026;-62
2021/10/15 03:30:20;;;;;;;3.38;1.60;;;;;;;20.37;47.60;101491.00;4993038;28;20030;-62
2021/10/15 03:32:45;;;;;;;3.67;1.50;;;;;;;20.37;47.46;101485.69;4992576;28;20038;-62
2021/10/15 03:35:11;;;;;;;3.72;1.42;;;;;;;20.35;47.52;101488.47;4992956;28;20316;-62
2021/10/15 03:37:37;;;;;;;3.38;1.77;;;;;;;20.36;47.44;101491.94;4993222;28;20034;-62
2021/10/15 03:40:03;;;;;;;3.00;1.30;;;;;;;20.36;47.61;101489.31;4992104;28;20459;-63
2021/10/15 03:42:28;;;;;;;3.05;1.25;;;;;;;20.36;47.53;101486.66;4993060;28;20023;-62
2021/10/15 03:44:55;;;;;;;3.55;1.73;;;;;;;20.34;47.47;101486.78;4993069;28;20038;-63
2021/10/15 03:47:21;;;;;;;3.03;1.50;;;;;;;20.35;47.63;101477.06;4992098;28;20042;-63
2021/10/15 03:49:46;;;;;;;3.10;1.60;;;;;;;20.33;47.45;101482.47;4993170;28;20148;-62
2021/10/15 03:52:12;;;;;;;3.03;1.37;;;;;;;20.34;47.46;101475.34;4992740;28;20022;-62
2021/10/15 03:54:37;;;;;;;2.72;1.40;;;;;;;20.32;47.58;101472.84;4991976;28;20727;-63
2021/10/15 03:57:02;;;;;;;3.40;1.73;;;;;;;20.33;47.71;101473.66;4992590;28;20034;-62
2021/10/15 03:59:31;;;;;;;3.72;1.60;;;;;;;20.32;47.48;101464.06;4992526;28;20296;-62
2021/10/15 04:01:56;;;;;;;3.38;1.45;;;;;;;20.31;47.49;101471.13;4992409;28;20034;-62
2021/10/15 04:04:21;;;;;;;3.90;1.65;;;;;;;20.32;47.44;101458.78;4992957;28;20034;-61
2021/10/15 04:06:46;;;;;;;3.92;1.45;;;;;;;20.31;47.78;101463.19;4992618;28;20097;-63
2021/10/15 04:09:12;;;;;;;3.33;1.40;;;;;;;20.32;47.54;101456.13;4992016;28;20466;-63
2021/10/15 04:11:37;;;;;;;4.30;1.93;;;;;;;20.31;47.60;101455.25;4992905;28;20280;-63
2021/10/15 04:14:02;;;;;;;3.33;1.45;;;;;;;20.31;47.64;101452.63;4992124;28;20280;-63
2021/10/15 04:16:28;;;;;;;3.67;1.58;;;;;;;20.29;47.79;101462.50;4992368;28;20037;-62
2021/10/15 04:18:53;;;;;;;3.38;1.50;;;;;;;20.29;47.68;101454.56;4992942;28;20065;-62
2021/10/15 04:21:18;;;;;;;3.88;1.50;;;;;;;20.28;47.59;101444.91;4992686;28;20053;-63
2021/10/15 04:23:44;;;;;;;4.20;1.58;;;;;;;20.28;47.59;101447.56;4996236;28;20073;-63
2021/10/15 04:26:09;;;;;;;3.30;1.48;;;;;;;20.28;47.72;101442.28;4996244;28;20093;-63
2021/10/15 04:28:34;;;;;;;3.38;1.55;;;;;;;20.28;47.76;101431.69;4995763;28;20054;-63
2021/10/15 04:31:00;;;;;;;3.45;1.67;;;;;;;20.27;47.71;101427.38;4996466;28;20423;-63
2021/10/15 04:33:26;;;;;;;5.07;1.70;;;;;;;20.27;47.90;101427.38;4996809;28;20327;-62
2021/10/15 04:35:51;;;;;;;5.22;1.85;;;;;;;20.27;47.84;101437.97;4995720;28;20026;-63
2021/10/15 04:38:17;;;;;;;3.17;1.20;;;;;;;20.27;47.63;101437.97;4996009;28;20080;-62
2021/10/15 04:40:42;;;;;;;4.03;1.58;;;;;;;20.27;47.70;101437.97;4996434;28;20367;-62
2021/10/15 04:43:07;;;;;;;3.20;1.33;;;;;;;20.26;47.43;101441.56;4995080;28;20030;-62
2021/10/15 04:45:33;;;;;;;3.63;1.30;;;;;;;20.26;47.86;101438.91;4996530;28;20055;-62
2021/10/15 04:47:58;;;;;;;4.17;1.40;;;;;;;20.27;47.29;101432.66;4996016;28;20494;-62
2021/10/15 04:50:24;;;;;;;3.90;1.40;;;;;;;20.26;47.79;101428.34;4995454;28;20320;-63
2021/10/15 04:52:49;;;;;;;4.18;1.40;;;;;;;20.26;47.59;101425.69;4996125;28;20033;-62
2021/10/15 04:55:17;;;;;;;3.72;1.63;;;;;;;20.25;47.73;101424.84;4995569;28;20649;-62
2021/10/15 04:57:42;;;;;;;4.60;1.48;;;;;;;20.26;47.77;101426.50;4995126;28;20383;-63
2021/10/15 05:00:10;;;;;;;3.70;1.50;;;;;;;20.25;47.68;101430.16;4995398;28;20136;-62
2021/10/15 05:02:39;;;;;;;4.05;1.50;;;;;;;20.26;47.78;101428.34;4995801;28;20429;-62
2021/10/15 05:05:08;;;;;;;3.80;1.50;;;;;;;20.25;47.85;101429.28;4995079;28;20110;-63
2021/10/15 05:07:35;;;;;;;3.67;1.70;;;;;;;20.24;47.61;101436.41;4995817;28;20042;-62
2021/10/15 05:10:00;;;;;;;3.78;1.50;;;;;;;20.25;47.66;101442.50;4995134;28;20417;-63
2021/10/15 05:12:26;;;;;;;2.85;1.40;;;;;;;20.25;48.05;101437.22;4995197;28;20041;-62
2021/10/15 05:14:51;;;;;;;3.47;1.58;;;;;;;20.25;47.71;101432.78;4996058;28;20522;-63
2021/10/15 05:17:17;;;;;;;4.13;1.52;;;;;;;20.24;47.94;101433.75;4995129;28;20379;-62
2021/10/15 05:19:48;;;;;;;2.78;1.20;;;;;;;20.23;47.88;101424.13;4995337;28;20061;-62
2021/10/15 05:22:13;;;;;;;3.80;1.70;;;;;;;20.22;47.66;101425.09;4995315;28;20030;-62
2021/10/15 05:24:39;;;;;;;5.13;1.70;;;;;;;20.23;47.78;101423.28;4995233;28;20038;-63
2021/10/15 05:27:04;;;;;;;3.25;1.30;;;;;;;20.25;47.98;101416.06;4994778;28;20038;-62
2021/10/15 05:29:30;;;;;;;3.13;1.33;;;;;;;20.32;48.15;101421.72;4995761;28;20553;-63
2021/10/15 05:31:55;;;;;;;2.63;1.20;;;;;;;20.40;48.52;101417.44;4994666;28;20327;-61
2021/10/15 05:34:21;;;;;;;3.15;1.30;;;;;;;20.53;48.44;101424.41;4994749;28;20021;-62
2021/10/15 05:36:49;;;;;;;2.78;1.20;;;;;;;20.63;48.15;101422.66;4995399;28;20034;-62
2021/10/15 05:39:14;;;;;;;3.42;1.38;;;;;;;20.72;48.12;101426.41;4994106;28;20031;-63
2021/10/15 05:41:39;;;;;;;3.50;1.20;;;;;;;20.77;47.81;101416.25;4994943;28;20478;-62
2021/10/15 05:44:05;;;;;;;2.70;1.35;;;;;;;20.84;47.85;101433.31;4994747;28;20018;-63
2021/10/15 05:46:30;;;;;;;2.47;1.13;;;;;;;20.92;47.67;101425.56;4994156;28;20378;-62
2021/10/15 05:48:55;;;;;;;2.38;1.13;;;;;;;21.01;47.19;101435.41;4994780;28;20085;-62
2021/10/15 05:51:22;;;;;;;2.95;1.00;;;;;;;21.09;47.21;101429.41;4994502;28;20019;-63
2021/10/15 05:53:50;;;;;;;2.25;1.00;;;;;;;21.14;47.17;101432.53;4993782;28;20069;-63
2021/10/15 05:56:41;;;;;;;2.20;1.00;;;;;;;21.17;47.04;101432.28;4993970;28;20046;-62
2021/10/15 05:59:06;;;;;;;2.40;1.10;;;;;;;21.22;46.99;101425.72;4993671;28;20097;-62
2021/10/15 06:01:33;;;;;;;2.95;1.10;;;;;;;21.25;46.83;101434.25;4993962;28;20026;-63
2021/10/15 06:04:23;;;;;;;1.95;0.90;;;;;;;21.28;46.69;101439.31;4994379;28;20030;-63
2021/10/15 06:14:57;;;;;;;2.67;1.08;;;;;;;21.42;46.31;101432.00;4994655;28;20065;-62
2021/10/15 06:17:22;;;;;;;2.67;1.08;;;;;;;21.43;46.67;101418.59;4994431;28;20469;-62
2021/10/15 06:19:52;;;;;;;2.03;1.00;;;;;;;21.44;46.48;101422.91;4994216;28;20037;-62
2021/10/15 06:22:24;;;;;;;3.05;1.20;;;;;;;21.47;46.50;101421.81;4993871;28;20042;-64
2021/10/15 06:24:51;;;;;;;2.38;0.93;;;;;;;21.47;46.48;101422.66;4994731;28;20035;-65
2021/10/15 06:27:24;;;;;;;2.13;0.90;;;;;;;21.49;46.52;101419.91;4993752;28;20406;-61
2021/10/15 06:29:50;;;;;;;3.72;1.58;;;;;;;21.46;46.40;101430.75;4993807;28;20053;-62
2021/10/15 06:32:16;;;;;;;2.25;1.13;;;;;;;21.43;46.55;101421.25;4994090;28;20061;-63
2021/10/15 06:34:41;;;;;;;2.40;1.13;;;;;;;21.46;46.70;101433.38;4994100;28;20089;-62
2021/10/15 06:37:09;;;;;;;2.22;1.13;;;;;;;21.50;46.53;101426.88;4993696;28;20037;-63
2021/10/15 06:39:35;;;;;;;2.40;1.02;;;;;;;21.52;46.50;101433.75;4994103;28;20026;-63
2021/10/15 06:42:00;;;;;;;2.40;1.10;;;;;;;21.54;46.56;101431.81;4993288;28;20038;-63
2021/10/15 06:44:28;;;;;;;2.90;1.08;;;;;;;21.57;46.42;101438.66;4993293;28;20026;-60
2021/10/15 06:46:53;;;;;;;2.53;1.00;;;;;;;21.55;46.48;101444.09;4993767;28;20452;-61
2021/10/15 06:49:19;;;;;;;2.00;0.90;;;;;;;21.55;46.43;101443.25;4993040;28;20478;-63
2021/10/15 06:51:46;;;;;;;2.25;1.10;;;;;;;21.51;46.43;101439.19;4994053;28;20101;-63
2021/10/15 06:54:11;;;;;;;3.30;1.15;;;;;;;21.44;46.68;101445.94;4993316;28;20398;-63
2021/10/15 06:56:36;;;;;;;4.47;1.25;;;;;;;21.40;46.94;101444.56;4993097;28;20038;-64
2021/10/15 06:59:01;;;;;;;3.80;1.15;;;;;;;21.41;47.00;101447.03;4993794;28;20034;-66
2021/10/15 07:01:27;;;;;;;2.97;1.20;;;;;;;21.45;46.86;101447.63;4994125;28;20532;-64
2021/10/15 07:03:52;;;;;;;5.83;1.30;;;;;;;21.52;46.94;101459.41;4993158;28;20105;-61
2021/10/15 07:06:17;;;;;;;3.53;1.10;;;;;;;21.52;46.88;101448.81;4993310;28;20767;-61
2021/10/15 07:08:42;;;;;;;3.33;1.10;;;;;;;21.58;47.05;101447.44;4993871;28;20116;-65
2021/10/15 07:11:08;;;;;;;4.53;1.17;;;;;;;21.61;46.63;101442.72;4992597;28;20026;-65
2021/10/15 07:13:33;;;;;;;2.35;1.00;;;;;;;21.67;46.72;101454.63;4993978;28;20390;-64
2021/10/15 07:15:58;;;;;;;2.57;0.93;;;;;;;21.69;46.74;101457.97;4993268;28;20106;-62
2021/10/15 07:18:27;;;;;;;2.72;0.98;;;;;;;21.72;46.78;101461.19;4993361;28;20280;-63
2021/10/15 07:20:52;;;;;;;2.88;1.27;;;;;;;21.73;46.78;101465.53;4993792;28;20105;-62
2021/10/15 07:23:17;;;;;;;2.17;0.95;;;;;;;21.76;46.68;101466.22;4992986;28;20483;-63
2021/10/15 07:25:45;;;;;;;2.33;1.10;;;;;;;21.77;46.96;101462.59;4992783;28;20061;-63
2021/10/15 07:28:10;;;;;;;2.72;1.30;;;;;;;21.76;46.88;101471.53;4993061;28;20291;-64
2021/10/15 07:30:36;;;;;;;3.53;1.17;;;;;;;21.76;46.87;101472.34;4993113;28;20030;-63
2021/10/15 07:33:10;;;;;;;3.80;1.33;;;;;;;21.77;46.94;101473.22;4992362;28;20037;-64
2021/10/15 07:35:41;;;;;;;5.13;2.28;;;;;;;21.78;46.93;101466.91;4993186;28;20034;-63
2021/10/15 07:38:08;;;;;;;3.47;1.02;;;;;;;21.78;46.94;101475.75;4992057;28;20046;-64
2021/10/15 07:40:33;;;;;;;4.63;0.98;;;;;;;21.78;47.22;101477.53;4992602;28;20493;-64
2021/10/15 07:43:01;;;;;;;5.82;1.55;;;;;;;21.67;47.87;101481.13;4993272;28;20034;-64
2021/10/15 07:45:28;;;;;;;4.13;1.40;;;;;;;21.56;48.98;101484.72;4991996;28;20526;-67
2021/10/15 07:47:53;;;;;;;5.18;1.85;;;;;;;21.51;49.44;101486.94;4992831;28;20034;-68
2021/10/15 07:50:19;;;;;;;6.82;1.63;;;;;;;21.54;49.61;101491.97;4993201;28;20117;-65
2021/10/15 07:52:44;;;;;;;5.70;1.90;;;;;;;21.62;50.05;101501.88;4992725;28;20508;-64
2021/10/15 07:55:10;;;;;;;5.45;1.88;;;;;;;21.72;50.02;101505.44;4994279;28;20153;-64
2021/10/15 07:57:36;;;;;;;6.80;2.08;;;;;;;21.81;49.78;101520.56;4993981;28;20047;-64
2021/10/15 08:00:04;;;;;;;5.28;1.70;;;;;;;21.88;49.48;101527.00;4992991;28;20037;-64
2021/10/15 08:02:29;;;;;;;6.35;2.10;;;;;;;21.95;49.22;101558.34;4993426;28;20199;-66
2021/10/15 08:04:54;;;;;;;6.33;2.00;;;;;;;21.99;49.27;101559.75;4993013;28;20359;-69
2021/10/15 08:07:20;;;;;;;5.93;2.17;;;;;;;21.97;49.36;101562.53;4991978;28;20292;-68
2021/10/15 08:09:45;;;;;;;4.63;2.00;;;;;;;21.92;49.40;101557.63;4993382;28;20041;-66
2021/10/15 08:12:10;;;;;;;5.23;2.20;;;;;;;21.94;49.41;101565.47;4993123;28;20018;-63
2021/10/15 08:14:35;;;;;;;7.45;1.90;;;;;;;21.96;49.71;101560.84;4992638;28;20318;-65
2021/10/15 08:17:01;;;;;;;6.53;2.05;;;;;;;22.00;49.74;101570.25;4992695;28;20073;-64
2021/10/15 08:19:26;;;;;;;5.32;1.95;;;;;;;22.00;49.86;101572.03;4992712;28;20126;-65
2021/10/15 08:21:51;;;;;;;5.77;2.30;;;;;;;22.01;49.91;101571.06;4992504;28;20042;-65
2021/10/15 08:24:17;;;;;;;6.50;2.05;;;;;;;22.03;49.63;101571.78;4994823;28;20374;-62
2021/10/15 08:26:42;;;;;;;4.32;1.83;;;;;;;22.01;49.73;101587.81;4993854;28;20042;-62
2021/10/15 08:29:08;;;;;;;5.40;1.90;;;;;;;22.01;49.54;101593.13;4992165;28;20093;-62
2021/10/15 08:31:33;;;;;;;6.95;2.10;;;;;;;21.97;49.53;101607.66;4993107;28;20272;-64
2021/10/15 08:33:59;;;;;;;7.32;2.10;;;;;;;21.93;49.31;101617.69;4993154;28;20493;-64
2021/10/15 08:36:25;;;;;;;6.28;1.83;;;;;;;21.90;49.48;101620.63;4993000;28;20027;-64
2021/10/15 08:38:51;;;;;;;6.22;2.20;;;;;;;21.88;49.38;101625.19;4993902;28;20044;-64
2021/10/15 08:41:24;;;;;;;4.65;1.75;;;;;;;21.87;49.43;101630.63;4992442;28;20031;-64
2021/10/15 08:43:53;;;;;;;5.05;1.80;;;;;;;21.85;49.31;101630.75;4992383;28;20044;-64
2021/10/15 08:46:19;;;;;;;5.95;1.80;;;;;;;21.85;49.16;101633.41;4992164;28;20023;-64
2021/10/15 08:48:45;;;;;;;6.43;2.25;;;;;;;21.84;49.21;101641.50;4992562;28;20031;-64
2021/10/15 08:51:10;;;;;;;8.23;1.75;;;;;;;21.82;49.11;101644.28;4992166;28;20034;-64
2021/10/15 08:53:55;;;;;;;5.20;1.85;;;;;;;21.80;49.32;101645.41;4992558;28;20096;-63
2021/10/15 08:56:23;;;;;;;5.90;1.80;;;;;;;21.79;49.08;101654.31;4991995;28;20105;-64
2021/10/15 08:58:58;;;;;;;6.10;1.80;;;;;;;21.78;49.18;101649.97;4992517;28;20026;-64
2021/10/15 09:01:28;;;;;;;3.85;1.48;;;;;;;21.74;49.22;101644.94;4992365;28;20481;-64
2021/10/15 09:04:03;;;;;;;4.22;1.60;;;;;;;21.74;49.46;101654.72;4992084;28;20022;-65
2021/10/15 09:06:37;;;;;;;5.25;1.85;;;;;;;21.72;49.35;101659.31;4992596;28;20026;-63
2021/10/15 09:09:03;;;;;;;;;;;;;;;21.71;49.34;101662.91;4993937;28;20042;-62
2021/10/15 09:11:40;;;;;;;3.17;1.50;;;;;;;21.78;49.16;101660.59;4997176;28;19917;-62
2021/10/15 09:14:13;;;;;;;4.32;1.42;;;;;;;21.83;49.06;101669.03;4995717;28;20525;-62
2021/10/15 09:17:17;;;;;;;5.15;1.50;;;;;;;21.86;49.11;101674.06;4995955;28;20042;-62
2021/10/15 09:20:03;;;;;;;4.45;1.45;;;;;;;21.90;48.94;101676.34;4996746;28;20050;-61
2021/10/15 09:22:35;;;;;;;3.58;1.42;;;;;;;21.93;48.60;101685.84;4997699;28;20038;-61
2021/10/15 09:25:12;;;;;;;4.57;1.40;;;;;;;21.99;48.50;101689.81;4995108;28;20482;-62
2021/10/15 09:27:45;;;;;;;5.47;1.17;;;;;;;22.02;48.08;101689.53;4996532;28;20030;-61
2021/10/15 09:30:11;;;;;;;4.15;1.30;;;;;;;22.07;48.03;101687.34;4995512;28;20093;-62
2021/10/15 09:32:38;;;;;;;4.38;1.30;;;;;;;22.08;48.07;101687.22;4995847;28;20442;-62
2021/10/15 09:35:06;;;;;;;3.47;1.00;;;;;;;22.09;48.19;101693.34;4995126;28;20117;-63
2021/10/15 09:37:34;;;;;;;5.55;1.58;;;;;;;22.07;48.22;101705.91;4995778;28;20054;-63
2021/10/15 09:40:27;;;;;;;3.97;1.40;;;;;;;22.05;48.39;101703.38;4994733;28;20455;-67
2021/10/15 09:42:54;;;;;;;4.93;1.25;;;;;;;22.02;48.10;101714.25;4995329;28;20049;-64
2021/10/15 09:45:31;;;;;;;3.90;1.35;;;;;;;21.96;48.62;101711.28;4994331;28;20104;-64
2021/10/15 09:47:59;;;;;;;5.47;1.13;;;;;;;21.96;48.46;101714.78;4995393;28;20058;-64
2021/10/15 09:50:27;;;;;;;3.67;1.30;;;;;;;21.99;48.52;101719.81;4995331;28;20023;-64
2021/10/15 09:52:55;;;;;;;4.50;1.10;;;;;;;22.00;48.47;101718.00;4994579;28;20477;-65
2021/10/15 09:55:33;;;;;;;3.33;1.20;;;;;;;22.01;48.35;101723.19;4995084;28;20093;-64
2021/10/15 09:58:19;;;;;;;3.45;1.15;;;;;;;22.04;48.30;101722.09;4995003;28;20030;-62
2021/10/15 10:00:46;;;;;;;4.15;1.23;;;;;;;22.05;48.16;101719.31;4995031;28;20113;-63
2021/10/15 10:03:14;;;;;;;3.10;1.88;;;;;;;22.08;48.22;101723.53;4995094;28;20018;-64
2021/10/15 10:05:39;;;;;;;3.55;1.00;;;;;;;22.06;48.34;101725.47;4995200;28;20060;-65
2021/10/15 10:08:05;;;;;;;2.57;1.10;;;;;;;22.02;48.46;101730.19;4994339;28;20447;-68
2021/10/15 10:10:33;;;;;;;4.63;1.00;;;;;;;21.99;48.42;101737.56;4995114;28;20278;-67
2021/10/15 10:12:59;;;;;;;4.43;1.38;;;;;;;21.98;48.73;101731.41;4994820;28;20367;-63
2021/10/15 10:15:28;;;;;;;3.90;1.10;;;;;;;22.02;48.62;101740.81;4995066;28;20056;-63
2021/10/15 10:18:26;;;;;;;3.17;1.15;;;;;;;22.06;48.45;101736.94;4995266;28;20033;-63
2021/10/15 10:21:08;;;;;;;3.13;1.20;;;;;;;22.12;48.09;101740.03;4994330;28;20360;-63
2021/10/15 10:23:39;;;;;;;2.33;0.93;;;;;;;22.16;48.00;101749.41;4995689;28;20162;-64
2021/10/15 10:26:08;;;;;;;2.53;0.98;;;;;;;22.20;48.06;101743.72;4995833;28;20031;-65
2021/10/15 10:28:34;;;;;;;2.90;1.00;;;;;;;22.20;47.82;101742.88;4994557;28;20426;-58
2021/10/15 10:31:22;;;;;;;3.42;1.10;;;;;;;22.07;48.21;101743.91;4993808;28;20030;-60
2021/10/15 10:34:08;;;;;;;2.30;0.90;;;;;;;21.93;48.35;101747.72;4994305;28;20030;-62
2021/10/15 10:36:38;;;;;;;4.60;1.20;;;;;;;21.85;48.76;101749.34;4993897;28;20026;-62
2021/10/15 10:39:18;;;;;;;2.85;1.20;;;;;;;21.74;49.02;101755.53;4993955;28;20105;-61
2021/10/15 10:42:04;;;;;;;3.47;1.00;;;;;;;21.68;49.20;101761.31;4993871;28;20402;-62
2021/10/15 10:44:30;;;;;;;3.63;1.08;;;;;;;21.63;49.29;101759.06;4994013;28;20532;-62
2021/10/15 10:47:20;;;;;;;4.55;1.02;;;;;;;21.59;49.34;101759.44;4993671;28;20070;-61
2021/10/15 10:50:09;;;;;;;3.70;1.05;;;;;;;21.61;49.29;101757.50;4993366;28;20109;-61
2021/10/15 10:52:46;;;;;;;6.47;1.35;;;;;;;21.60;49.50;101764.59;4993836;28;20451;-61
2021/10/15 10:55:43;;;;;;;4.50;1.30;;;;;;;21.67;49.26;101763.16;4993925;28;20054;-61
2021/10/15 10:58:30;;;;;;;5.22;1.50;;;;;;;21.82;48.67;101769.00;4993877;28;20489;-62
2021/10/15 11:01:20;;;;;;;4.45;1.20;;;;;;;21.87;48.17;101771.25;4994199;28;20379;-63
2021/10/15 11:03:45;;;;;;;3.35;1.17;;;;;;;21.89;48.29;101778.16;4997290;28;20034;-61
2021/10/15 11:06:14;;;;;;;5.60;1.20;;;;;;;21.88;48.34;101772.97;4996591;28;20113;-62
2021/10/15 11:08:42;;;;;;;4.40;1.17;;;;;;;21.87;48.32;101769.47;4995406;28;20201;-63
2021/10/15 11:11:20;;;;;;;3.42;1.05;;;;;;;21.85;48.34;101773.22;4993825;28;20034;-65
2021/10/15 11:13:49;;;;;;;4.28;1.10;;;;;;;21.82;48.04;101769.00;4994397;28;20045;-65
2021/10/15 11:16:27;;;;;;;3.83;1.13;;;;;;;21.76;48.07;101774.78;4993220;28;20069;-64
2021/10/15 11:18:56;;;;;;;4.65;0.90;;;;;;;21.70;48.34;101778.81;4993747;28;20034;-64
2021/10/15 11:21:22;;;;;;;3.88;1.00;;;;;;;21.66;48.07;101782.69;4993729;28;20026;-64
2021/10/15 11:23:48;;;;;;;5.00;1.00;;;;;;;21.62;48.28;101780.41;4993302;28;20023;-63
2021/10/15 11:26:14;;;;;;;5.10;1.13;;;;;;;21.63;48.72;101779.44;4995612;28;20035;-60
2021/10/15 11:28:42;;;;;;;3.95;1.10;;;;;;;21.69;48.84;101785.06;4996129;28;20042;-64
2021/10/15 11:31:11;;;;;;;5.03;1.20;;;;;;;21.74;48.58;101782.88;4994303;28;20026;-63
2021/10/15 11:33:39;;;;;;;5.50;1.33;;;;;;;21.83;48.50;101785.78;4994286;28;20033;-63
2021/10/15 11:36:06;;;;;;;2.88;1.00;;;;;;;21.88;48.06;101787.06;4993215;28;20033;-64